createdAt,value
2022-11-01T00:04:13.617Z,12.9
2022-11-01T00:09:19.989Z,12.9
2022-11-01T00:14:46.526Z,12.9
2022-11-01T00:19:23.467Z,12.8
2022-11-01T00:24:29.930Z,12.8
2022-11-01T00:29:46.320Z,12.8
2022-11-01T00:34:52.688Z,12.8
2022-11-01T00:40:03.139Z,12.8
2022-11-01T00:45:05.504Z,12.8
2022-11-01T00:50:35.937Z,12.8
2022-11-01T00:55:18.297Z,12.8
2022-11-01T01:00:14.790Z,12.8
2022-11-01T01:05:45.285Z,12.8
2022-11-01T01:10:37.684Z,12.8
2022-11-01T01:15:44.045Z,12.9
2022-11-01T01:21:14.495Z,12.9
2022-11-01T01:25:56.849Z,12.9
2022-11-01T01:31:03.204Z,12.9
2022-11-01T01:36:09.686Z,12.9
2022-11-01T01:41:06.108Z,13.0
2022-11-01T01:46:22.768Z,13.0
2022-11-01T01:51:29.179Z,13.0
2022-11-01T01:56:39.604Z,13.0
2022-11-01T02:01:42.126Z,13.0
2022-11-01T02:06:52.297Z,13.0
2022-11-01T02:11:58.772Z,13.0
2022-11-01T02:17:00.276Z,13.1
2022-11-01T02:22:27.803Z,13.1
2022-11-01T02:27:14.264Z,13.1
2022-11-01T02:32:10.617Z,13.1
2022-11-01T02:37:16.987Z,13.1
2022-11-01T02:42:33.415Z,13.1
2022-11-01T02:47:29.745Z,13.1
2022-11-01T02:52:36.135Z,13.1
2022-11-01T03:02:49.125Z,13.2
2022-11-01T03:08:09.541Z,13.2
2022-11-01T03:13:11.984Z,13.3
2022-11-01T03:18:18.341Z,13.3
2022-11-01T03:23:24.712Z,13.4
2022-11-01T03:33:36.467Z,13.5
2022-11-01T03:43:51.398Z,13.7
2022-11-01T03:48:58.045Z,13.8
2022-11-01T03:54:03.465Z,13.8
2022-11-01T04:04:17.261Z,14.0
2022-11-01T04:09:47.679Z,14.0
2022-11-01T04:14:30.048Z,14.1
2022-11-01T04:19:36.445Z,14.2
2022-11-01T04:24:42.894Z,14.2
2022-11-01T04:29:49.340Z,14.3
2022-11-01T04:34:55.822Z,14.4
2022-11-01T04:45:08.505Z,14.5
2022-11-01T04:55:21.264Z,14.6
2022-11-01T05:00:27.762Z,14.7
2022-11-01T05:05:34.274Z,14.7
2022-11-01T05:10:40.721Z,14.8
2022-11-01T05:16:19.471Z,14.9
2022-11-01T05:20:52.567Z,14.9
2022-11-01T05:25:59.955Z,14.9
2022-11-01T05:31:06.329Z,15.0
2022-11-01T05:36:12.767Z,15.0
2022-11-01T05:41:19.133Z,15.0
2022-11-01T05:47:02.586Z,15.0
2022-11-01T05:52:09.999Z,15.0
2022-11-01T05:57:40.496Z,15.1
2022-11-01T06:02:12.844Z,15.1
2022-11-01T06:07:29.214Z,15.1
2022-11-01T06:12:35.571Z,15.1
2022-11-01T06:17:41.940Z,15.2
2022-11-01T06:22:48.354Z,15.2
2022-11-01T06:27:54.695Z,15.2
2022-11-01T06:32:51.240Z,15.3
2022-11-01T06:38:31.738Z,15.3
2022-11-01T06:43:14.034Z,15.4
2022-11-01T06:48:20.444Z,15.4
2022-11-01T06:53:26.837Z,15.4
2022-11-01T06:58:37.229Z,15.4
2022-11-01T07:03:39.570Z,15.3
2022-11-01T07:08:45.994Z,15.3
2022-11-01T07:14:16.428Z,15.2
2022-11-01T07:18:58.726Z,15.2
2022-11-01T07:23:55.092Z,15.1
2022-11-01T07:29:12.059Z,15.0
2022-11-01T07:34:18.486Z,15.0
2022-11-01T07:39:14.843Z,14.9
2022-11-01T07:44:31.883Z,14.8
2022-11-01T07:49:28.272Z,14.8
2022-11-01T07:54:34.750Z,14.7
2022-11-01T07:59:52.709Z,14.7
2022-11-01T08:04:59.113Z,14.9
2022-11-01T08:10:29.507Z,15.2
2022-11-01T08:15:11.844Z,15.8
2022-11-01T08:20:08.229Z,16.5
2022-11-01T08:25:24.610Z,17.1
2022-11-01T08:31:15.073Z,17.4
2022-11-01T08:35:37.527Z,17.4
2022-11-01T08:40:33.863Z,17.3
2022-11-01T08:45:49.257Z,17.3
2022-11-01T08:50:46.626Z,17.2
2022-11-01T08:56:03.127Z,17.0
2022-11-01T09:06:15.956Z,16.7
2022-11-01T09:11:22.371Z,16.5
2022-11-01T09:16:18.843Z,16.4
2022-11-01T09:24:08.560Z,16.2
2022-11-01T09:33:03.519Z,16.1
2022-11-01T09:34:02.028Z,16.1
2022-11-01T09:39:08.473Z,16.0
2022-11-01T09:45:06.998Z,16.0
2022-11-01T09:49:21.295Z,15.9
2022-11-01T09:59:27.410Z,15.9
2022-11-01T09:59:33.444Z,16.0
2022-11-01T10:04:40.913Z,16.0
2022-11-01T10:10:07.336Z,16.1
2022-11-01T10:15:37.755Z,16.3
2022-11-01T10:21:12.801Z,16.6
2022-11-01T10:25:07.158Z,17.0
2022-11-01T10:30:13.497Z,17.7
2022-11-01T10:35:19.889Z,18.5
2022-11-01T10:41:10.576Z,19.2
2022-11-01T10:53:10.137Z,21.5
2022-11-01T10:57:57.458Z,21.5
2022-11-01T11:03:03.867Z,22.1
2022-11-01T11:09:34.396Z,22.7
2022-11-01T11:13:16.769Z,23.1
2022-11-01T11:18:24.708Z,23.6
2022-11-01T11:28:36.645Z,24.2
2022-11-01T11:33:44.113Z,24.4
2022-11-01T11:38:50.638Z,24.7
2022-11-01T11:43:57.083Z,24.9
2022-11-01T11:49:04.021Z,25.0
2022-11-01T11:54:10.511Z,25.1
2022-11-01T12:00:08.106Z,25.1
2022-11-01T12:04:46.473Z,25.0
2022-11-01T12:09:32.865Z,24.9
2022-11-01T13:21:34.134Z,23.6
2022-11-01T13:35:21.545Z,23.4
2022-11-01T13:38:16.232Z,23.2
2022-11-01T13:41:36.572Z,23.4
2022-11-01T13:43:08.581Z,23.0
2022-11-01T13:48:24.992Z,22.8
2022-11-01T13:54:15.485Z,22.7
2022-11-01T14:04:04.330Z,22.5
2022-11-01T14:08:40.737Z,22.4
2022-11-01T14:13:57.230Z,22.4
2022-11-01T14:19:03.659Z,22.3
2022-11-01T14:24:10.037Z,22.1
2022-11-01T14:29:36.507Z,22.1
2022-11-01T14:34:22.879Z,22.0
2022-11-01T14:39:29.278Z,21.8
2022-11-01T14:44:35.657Z,21.7
2022-11-01T14:49:32.043Z,21.6
2022-11-01T14:54:48.416Z,21.4
2022-11-01T14:59:54.793Z,21.2
2022-11-01T15:05:01.225Z,21.0
2022-11-01T15:10:07.825Z,20.7
2022-11-01T15:15:14.050Z,20.5
2022-11-01T15:20:44.497Z,20.2
2022-11-01T15:25:26.801Z,20.0
2022-11-01T15:30:33.201Z,19.7
2022-11-01T15:35:39.556Z,19.4
2022-11-01T15:40:35.971Z,19.1
2022-11-01T15:46:37.581Z,18.9
2022-11-01T15:50:59.868Z,18.6
2022-11-01T15:56:06.259Z,18.4
2022-11-01T16:01:12.783Z,18.2
2022-11-01T16:06:18.995Z,17.9
2022-11-01T16:11:25.515Z,17.7
2022-11-01T16:16:51.937Z,17.5
2022-11-01T16:21:38.293Z,17.3
2022-11-01T16:26:44.789Z,17.1
2022-11-01T16:31:51.136Z,17.0
2022-11-01T16:38:09.652Z,16.8
2022-11-01T16:42:03.909Z,16.6
2022-11-01T16:47:10.262Z,16.5
2022-11-01T16:52:06.621Z,16.3
2022-11-01T16:57:23.074Z,16.1
2022-11-01T17:02:29.586Z,16.0
2022-11-01T17:07:35.798Z,15.9
2022-11-01T17:12:56.212Z,15.8
2022-11-01T17:17:48.533Z,15.7
2022-11-01T17:22:54.924Z,15.5
2022-11-01T17:28:01.689Z,15.4
2022-11-01T17:33:27.783Z,15.3
2022-11-01T17:38:38.360Z,15.2
2022-11-01T17:43:54.804Z,15.0
2022-11-01T17:49:02.153Z,15.0
2022-11-01T17:54:22.682Z,14.9
2022-11-01T17:59:04.938Z,14.8
2022-11-01T18:04:11.298Z,14.7
2022-11-01T18:09:17.730Z,14.7
2022-11-01T18:14:34.259Z,14.6
2022-11-01T18:19:30.626Z,14.5
2022-11-01T18:24:36.996Z,14.5
2022-11-01T18:29:43.398Z,14.4
2022-11-01T18:35:31.629Z,14.3
2022-11-01T18:46:11.517Z,14.2
2022-11-01T18:50:54.149Z,14.2
2022-11-01T18:56:25.655Z,14.1
2022-11-01T19:00:57.077Z,14.1
2022-11-01T19:06:03.331Z,14.0
2022-11-01T19:11:19.790Z,14.0
2022-11-01T19:16:26.254Z,14.0
2022-11-01T19:21:32.584Z,13.9
2022-11-01T19:26:42.957Z,13.9
2022-11-01T19:31:45.349Z,13.8
2022-11-01T19:36:51.707Z,13.8
2022-11-01T19:42:52.248Z,13.6
2022-11-01T19:47:39.726Z,13.6
2022-11-01T19:52:47.560Z,13.6
2022-11-01T19:58:12.500Z,13.5
2022-11-01T20:02:49.062Z,13.5
2022-11-01T20:07:55.305Z,13.4
2022-11-01T20:13:15.370Z,13.4
2022-11-01T20:23:27.017Z,13.3
2022-11-01T20:28:38.128Z,13.3
2022-11-01T20:33:31.520Z,13.2
2022-11-01T20:38:47.932Z,13.2
2022-11-01T20:43:45.334Z,13.2
2022-11-01T20:48:50.847Z,13.1
2022-11-01T20:54:17.473Z,13.1
2022-11-01T20:59:50.233Z,13.0
2022-11-01T21:04:48.215Z,13.0
2022-11-01T21:10:03.589Z,13.0
2022-11-01T21:15:00.957Z,13.0
2022-11-01T21:20:17.402Z,12.9
2022-11-01T21:25:13.872Z,12.9
2022-11-01T21:30:50.411Z,12.8
2022-11-01T21:35:36.809Z,12.8
2022-11-01T21:40:43.265Z,12.7
2022-11-01T21:45:48.657Z,12.7
2022-11-01T21:50:56.084Z,12.7
2022-11-01T21:55:52.539Z,12.7
2022-11-01T22:01:28.310Z,12.6
2022-11-01T22:06:15.720Z,12.6
2022-11-01T22:11:32.364Z,12.6
2022-11-01T22:16:19.972Z,12.5
2022-11-01T22:21:36.483Z,12.5
2022-11-01T22:26:42.880Z,12.5
2022-11-01T22:31:39.265Z,12.5
2022-11-01T22:36:55.889Z,12.5
2022-11-01T22:42:05.832Z,12.5
2022-11-01T22:47:12.361Z,12.6
2022-11-01T22:52:08.783Z,12.6
2022-11-01T22:57:25.193Z,12.6
2022-11-01T23:07:37.954Z,12.7
2022-11-01T23:12:47.907Z,12.7
2022-11-01T23:17:54.252Z,12.8
2022-11-01T23:23:34.738Z,12.8
2022-11-01T23:28:42.127Z,12.8
2022-11-01T23:33:49.112Z,12.8
2022-11-01T23:39:15.554Z,12.9
2022-11-01T23:44:01.875Z,12.8
2022-11-01T23:49:08.282Z,12.9
2022-11-01T23:54:14.647Z,12.9
2022-11-01T23:59:21.177Z,12.9
